sensor_id;sensor_type;location;lat;lon;timestamp;pressure;altitude;pressure_sealevel;temperature;humidity
60055;BME280;45930;53.514;55.904;2023-05-23T00:00:30;48498.19;;;-149.77;82.50
60055;BME280;45930;53.514;55.904;2023-05-23T00:01:33;48482.34;;;-149.77;81.93
60055;BME280;45930;53.514;55.904;2023-05-23T00:02:36;48486.31;;;-149.77;82.55
60055;BME280;45930;53.514;55.904;2023-05-23T00:03:38;48472.44;;;-149.77;83.21
60055;BME280;45930;53.514;55.904;2023-05-23T00:04:39;48490.25;;;-149.77;83.28
60055;BME280;45930;53.514;55.904;2023-05-23T00:05:39;48521.94;;;-149.77;81.80
60055;BME280;45930;53.514;55.904;2023-05-23T00:06:40;48480.38;;;-149.77;81.53
60055;BME280;45930;53.514;55.904;2023-05-23T00:07:46;48496.22;;;-149.77;82.20
60055;BME280;45930;53.514;55.904;2023-05-23T00:08:47;48502.16;;;-149.77;82.63
60055;BME280;45930;53.514;55.904;2023-05-23T00:09:48;48496.22;;;-149.77;83.35
60055;BME280;45930;53.514;55.904;2023-05-23T00:10:48;48472.44;;;-149.77;83.53
60055;BME280;45930;53.514;55.904;2023-05-23T00:11:49;48490.25;;;-149.77;84.42
60055;BME280;45930;53.514;55.904;2023-05-23T00:12:50;48512.06;;;-149.77;85.94
60055;BME280;45930;53.514;55.904;2023-05-23T00:13:52;48512.06;;;-149.77;86.88
60055;BME280;45930;53.514;55.904;2023-05-23T00:14:53;48512.06;;;-149.77;87.54
60055;BME280;45930;53.514;55.904;2023-05-23T00:15:54;48498.19;;;-149.77;87.60
60055;BME280;45930;53.514;55.904;2023-05-23T00:16:54;48533.84;;;-149.77;87.34
60055;BME280;45930;53.514;55.904;2023-05-23T00:17:55;48490.25;;;-149.77;87.96
60055;BME280;45930;53.514;55.904;2023-05-23T00:18:57;48502.16;;;-149.77;87.54
60055;BME280;45930;53.514;55.904;2023-05-23T00:19:59;48498.19;;;-149.77;87.07
60055;BME280;45930;53.514;55.904;2023-05-23T00:20:59;48490.25;;;-149.77;87.23
60055;BME280;45930;53.514;55.904;2023-05-23T00:22:01;48498.19;;;-149.77;87.08
60055;BME280;45930;53.514;55.904;2023-05-23T00:23:03;48474.41;;;-149.77;86.51
60055;BME280;45930;53.514;55.904;2023-05-23T00:24:04;48466.50;;;-149.77;86.32
60055;BME280;45930;53.514;55.904;2023-05-23T00:25:05;48470.47;;;-149.77;86.74
60055;BME280;45930;53.514;55.904;2023-05-23T00:26:10;48474.41;;;-149.77;86.77
60055;BME280;45930;53.514;55.904;2023-05-23T00:27:11;48476.41;;;-149.77;87.56
60055;BME280;45930;53.514;55.904;2023-05-23T00:28:11;48500.16;;;-149.77;88.51
60055;BME280;45930;53.514;55.904;2023-05-23T00:29:14;48498.19;;;-149.77;87.96
60055;BME280;45930;53.514;55.904;2023-05-23T00:30:18;48476.41;;;-149.77;87.57
60055;BME280;45930;53.514;55.904;2023-05-23T00:31:18;48482.34;;;-149.77;86.91
60055;BME280;45930;53.514;55.904;2023-05-23T00:32:19;48486.31;;;-149.77;85.30
60055;BME280;45930;53.514;55.904;2023-05-23T00:33:20;48482.34;;;-149.77;85.43
60055;BME280;45930;53.514;55.904;2023-05-23T00:34:22;48476.41;;;-149.77;85.61
60055;BME280;45930;53.514;55.904;2023-05-23T00:35:22;48484.31;;;-149.77;85.49
60055;BME280;45930;53.514;55.904;2023-05-23T00:36:23;48488.28;;;-149.77;85.71
60055;BME280;45930;53.514;55.904;2023-05-23T00:37:24;48482.34;;;-149.77;85.49
60055;BME280;45930;53.514;55.904;2023-05-23T00:38:25;48472.44;;;-149.77;85.49
60055;BME280;45930;53.514;55.904;2023-05-23T00:39:28;48462.53;;;-149.77;85.56
60055;BME280;45930;53.514;55.904;2023-05-23T00:40:29;48446.69;;;-149.77;85.56
60055;BME280;45930;53.514;55.904;2023-05-23T00:41:29;48472.44;;;-149.77;85.46
60055;BME280;45930;53.514;55.904;2023-05-23T00:42:30;48460.56;;;-149.77;86.24
60055;BME280;45930;53.514;55.904;2023-05-23T00:43:32;48474.41;;;-149.77;85.43
60055;BME280;45930;53.514;55.904;2023-05-23T00:44:33;48462.53;;;-149.77;85.18
60055;BME280;45930;53.514;55.904;2023-05-23T00:45:34;48456.59;;;-149.77;85.44
60055;BME280;45930;53.514;55.904;2023-05-23T00:46:35;48462.53;;;-149.77;85.39
60055;BME280;45930;53.514;55.904;2023-05-23T00:47:36;48452.63;;;-149.77;85.23
60055;BME280;45930;53.514;55.904;2023-05-23T00:48:36;48464.53;;;-149.77;85.49
60055;BME280;45930;53.514;55.904;2023-05-23T00:49:38;48468.47;;;-149.77;84.83
60055;BME280;45930;53.514;55.904;2023-05-23T00:50:40;48484.31;;;-149.77;84.48
60055;BME280;45930;53.514;55.904;2023-05-23T00:51:41;48458.56;;;-149.77;83.97
60055;BME280;45930;53.514;55.904;2023-05-23T00:52:44;48454.63;;;-149.77;84.26
60055;BME280;45930;53.514;55.904;2023-05-23T00:53:46;48466.50;;;-149.77;84.63
60055;BME280;45930;53.514;55.904;2023-05-23T00:54:47;48460.56;;;-149.77;84.18
60055;BME280;45930;53.514;55.904;2023-05-23T00:55:48;48446.69;;;-149.77;84.33
60055;BME280;45930;53.514;55.904;2023-05-23T00:56:48;48478.38;;;-149.77;84.67
60055;BME280;45930;53.514;55.904;2023-05-23T00:57:51;48458.56;;;-149.77;84.65
60055;BME280;45930;53.514;55.904;2023-05-23T00:58:55;48470.47;;;-149.77;83.95
60055;BME280;45930;53.514;55.904;2023-05-23T00:59:56;48470.47;;;-149.77;84.16
60055;BME280;45930;53.514;55.904;2023-05-23T01:00:57;48460.56;;;-149.77;84.14
60055;BME280;45930;53.514;55.904;2023-05-23T01:01:59;48468.47;;;-149.77;83.81
60055;BME280;45930;53.514;55.904;2023-05-23T01:03:00;48486.31;;;-149.77;83.42
60055;BME280;45930;53.514;55.904;2023-05-23T01:04:02;48476.41;;;-149.77;82.65
60055;BME280;45930;53.514;55.904;2023-05-23T01:05:04;48478.38;;;-149.77;82.44
60055;BME280;45930;53.514;55.904;2023-05-23T01:06:05;48482.34;;;-149.77;81.67
60055;BME280;45930;53.514;55.904;2023-05-23T01:07:07;48470.47;;;-149.77;81.89
60055;BME280;45930;53.514;55.904;2023-05-23T01:08:07;48488.28;;;-149.77;81.20
60055;BME280;45930;53.514;55.904;2023-05-23T01:09:08;48498.19;;;-149.77;78.71
60055;BME280;45930;53.514;55.904;2023-05-23T01:10:09;48516.00;;;-149.77;78.39
60055;BME280;45930;53.514;55.904;2023-05-23T01:11:40;48533.84;;;-149.77;79.16
60055;BME280;45930;53.514;55.904;2023-05-23T01:14:10;48490.25;;;-149.77;80.21
60055;BME280;45930;53.514;55.904;2023-05-23T01:15:14;48462.53;;;-149.77;80.72
60055;BME280;45930;53.514;55.904;2023-05-23T01:16:24;48470.47;;;-149.77;80.47
60055;BME280;45930;53.514;55.904;2023-05-23T01:17:42;48482.34;;;-149.77;79.11
60055;BME280;45930;53.514;55.904;2023-05-23T01:18:52;48523.94;;;-149.77;78.35
60055;BME280;45930;53.514;55.904;2023-05-23T01:20:02;48555.63;;;-149.77;78.47
60055;BME280;45930;53.514;55.904;2023-05-23T01:21:18;48514.03;;;-149.77;78.04
60055;BME280;45930;53.514;55.904;2023-05-23T01:25:32;48514.03;;;-149.77;77.89
60055;BME280;45930;53.514;55.904;2023-05-23T01:28:55;48551.66;;;-149.77;76.99
60055;BME280;45930;53.514;55.904;2023-05-23T01:29:59;48525.91;;;-149.77;77.19
60055;BME280;45930;53.514;55.904;2023-05-23T01:31:03;48531.84;;;-149.77;77.50
60055;BME280;45930;53.514;55.904;2023-05-23T01:32:09;48555.63;;;-149.77;77.86
60055;BME280;45930;53.514;55.904;2023-05-23T01:33:13;48529.88;;;-149.77;77.74
60055;BME280;45930;53.514;55.904;2023-05-23T01:34:17;48518.00;;;-149.77;77.55
60055;BME280;45930;53.514;55.904;2023-05-23T01:35:24;48510.06;;;-149.77;77.74
60055;BME280;45930;53.514;55.904;2023-05-23T01:36:26;48496.22;;;-149.77;78.38
60055;BME280;45930;53.514;55.904;2023-05-23T01:37:27;48498.19;;;-149.77;78.72
60055;BME280;45930;53.514;55.904;2023-05-23T01:38:29;48510.06;;;-149.77;78.60
60055;BME280;45930;53.514;55.904;2023-05-23T01:39:30;48504.13;;;-149.77;79.23
60055;BME280;45930;53.514;55.904;2023-05-23T01:40:30;48508.09;;;-149.77;79.45
60055;BME280;45930;53.514;55.904;2023-05-23T01:41:31;48498.19;;;-149.77;79.46
60055;BME280;45930;53.514;55.904;2023-05-23T01:42:32;48486.31;;;-149.77;79.88
60055;BME280;45930;53.514;55.904;2023-05-23T01:43:33;48496.22;;;-149.77;79.85
60055;BME280;45930;53.514;55.904;2023-05-23T01:44:34;48486.31;;;-149.77;79.93
60055;BME280;45930;53.514;55.904;2023-05-23T01:45:36;48466.50;;;-149.77;80.15
60055;BME280;45930;53.514;55.904;2023-05-23T01:46:37;48492.25;;;-149.77;79.97
60055;BME280;45930;53.514;55.904;2023-05-23T01:47:39;48482.34;;;-149.77;79.65
60055;BME280;45930;53.514;55.904;2023-05-23T01:48:41;48476.41;;;-149.77;79.51
60055;BME280;45930;53.514;55.904;2023-05-23T01:49:43;48466.50;;;-149.77;79.00
60055;BME280;45930;53.514;55.904;2023-05-23T01:50:45;48464.53;;;-149.77;78.86
60055;BME280;45930;53.514;55.904;2023-05-23T01:51:46;48488.28;;;-149.77;78.47
60055;BME280;45930;53.514;55.904;2023-05-23T01:52:48;48460.56;;;-149.77;78.43
60055;BME280;45930;53.514;55.904;2023-05-23T01:53:50;48478.38;;;-149.77;78.18
60055;BME280;45930;53.514;55.904;2023-05-23T01:54:52;48476.41;;;-149.77;78.32
60055;BME280;45930;53.514;55.904;2023-05-23T01:55:53;48438.78;;;-149.77;78.95
60055;BME280;45930;53.514;55.904;2023-05-23T01:56:56;48464.53;;;-149.77;78.35
60055;BME280;45930;53.514;55.904;2023-05-23T01:57:58;48434.81;;;-149.77;77.84
60055;BME280;45930;53.514;55.904;2023-05-23T01:58:59;48450.66;;;-149.77;77.69
60055;BME280;45930;53.514;55.904;2023-05-23T02:00:02;48430.84;;;-149.77;78.31
60055;BME280;45930;53.514;55.904;2023-05-23T02:01:03;48442.75;;;-149.77;78.61
60055;BME280;45930;53.514;55.904;2023-05-23T02:02:04;48460.56;;;-149.77;76.29
60055;BME280;45930;53.514;55.904;2023-05-23T02:03:05;48468.47;;;-149.77;75.70
60055;BME280;45930;53.514;55.904;2023-05-23T02:04:06;48496.22;;;-149.77;74.56
60055;BME280;45930;53.514;55.904;2023-05-23T02:05:08;48518.00;;;-149.77;73.51
60055;BME280;45930;53.514;55.904;2023-05-23T02:06:10;48521.94;;;-149.77;72.85
60055;BME280;45930;53.514;55.904;2023-05-23T02:07:11;48573.44;;;-149.77;70.05
60055;BME280;45930;53.514;55.904;2023-05-23T02:08:12;48626.91;;;-149.77;67.81
60055;BME280;45930;53.514;55.904;2023-05-23T02:09:13;48628.91;;;-149.77;66.92
60055;BME280;45930;53.514;55.904;2023-05-23T02:10:14;48658.59;;;-149.77;66.11
60055;BME280;45930;53.514;55.904;2023-05-23T02:11:14;48668.50;;;-149.77;65.27
60055;BME280;45930;53.514;55.904;2023-05-23T02:12:16;48723.97;;;-149.77;64.09
60055;BME280;45930;53.514;55.904;2023-05-23T02:13:16;48718.03;;;-149.77;62.01
60055;BME280;45930;53.514;55.904;2023-05-23T02:14:17;48797.25;;;-149.77;60.13
60055;BME280;45930;53.514;55.904;2023-05-23T02:15:18;48791.28;;;-149.77;58.89
60055;BME280;45930;53.514;55.904;2023-05-23T02:16:20;48797.25;;;-149.77;58.92
60055;BME280;45930;53.514;55.904;2023-05-23T02:17:21;48815.06;;;-149.77;58.43
60055;BME280;45930;53.514;55.904;2023-05-23T02:18:22;48830.91;;;-149.77;58.25
60055;BME280;45930;53.514;55.904;2023-05-23T02:19:25;48828.94;;;-149.77;57.41
60055;BME280;45930;53.514;55.904;2023-05-23T02:20:26;48824.97;;;-149.77;57.19
60055;BME280;45930;53.514;55.904;2023-05-23T02:21:27;48832.88;;;-149.77;56.87
60055;BME280;45930;53.514;55.904;2023-05-23T02:22:28;48844.78;;;-149.77;56.45
60055;BME280;45930;53.514;55.904;2023-05-23T02:23:29;48838.84;;;-149.77;56.51
60055;BME280;45930;53.514;55.904;2023-05-23T02:24:30;48828.94;;;-149.77;56.67
60055;BME280;45930;53.514;55.904;2023-05-23T02:25:31;48832.88;;;-149.77;56.52
60055;BME280;45930;53.514;55.904;2023-05-23T02:26:31;48834.88;;;-149.77;57.27
60055;BME280;45930;53.514;55.904;2023-05-23T02:27:32;48815.06;;;-149.77;57.08
60055;BME280;45930;53.514;55.904;2023-05-23T02:28:33;48823.00;;;-149.77;56.77
60055;BME280;45930;53.514;55.904;2023-05-23T02:29:34;48836.84;;;-149.77;57.14
60055;BME280;45930;53.514;55.904;2023-05-23T02:30:35;48856.66;;;-149.77;56.42
60055;BME280;45930;53.514;55.904;2023-05-23T02:31:36;48854.69;;;-149.77;56.15
60055;BME280;45930;53.514;55.904;2023-05-23T02:32:36;48850.72;;;-149.77;55.95
60055;BME280;45930;53.514;55.904;2023-05-23T02:33:38;48862.59;;;-149.77;55.43
60055;BME280;45930;53.514;55.904;2023-05-23T02:34:39;48896.28;;;-149.77;54.80
60055;BME280;45930;53.514;55.904;2023-05-23T02:35:39;48878.44;;;-149.77;54.14
60055;BME280;45930;53.514;55.904;2023-05-23T02:36:40;48890.31;;;-149.77;53.87
60055;BME280;45930;53.514;55.904;2023-05-23T02:37:41;48892.31;;;-149.77;53.47
60055;BME280;45930;53.514;55.904;2023-05-23T02:38:42;48872.50;;;-149.77;53.10
60055;BME280;45930;53.514;55.904;2023-05-23T02:39:43;48886.38;;;-149.77;52.78
60055;BME280;45930;53.514;55.904;2023-05-23T02:40:44;48886.38;;;-149.77;52.61
60055;BME280;45930;53.514;55.904;2023-05-23T02:41:44;48906.16;;;-149.77;52.20
60055;BME280;45930;53.514;55.904;2023-05-23T02:42:45;48918.06;;;-149.77;51.67
60055;BME280;45930;53.514;55.904;2023-05-23T02:43:46;48937.88;;;-149.77;51.31
60055;BME280;45930;53.514;55.904;2023-05-23T02:44:47;48943.81;;;-149.77;50.63
60055;BME280;45930;53.514;55.904;2023-05-23T02:45:48;48943.81;;;-149.77;50.04
60055;BME280;45930;53.514;55.904;2023-05-23T02:46:49;48937.88;;;-149.77;49.88
60055;BME280;45930;53.514;55.904;2023-05-23T02:47:50;48961.63;;;-149.77;49.80
60055;BME280;45930;53.514;55.904;2023-05-23T02:48:50;48947.75;;;-149.77;49.77
60055;BME280;45930;53.514;55.904;2023-05-23T02:49:51;48933.91;;;-149.77;49.43
60055;BME280;45930;53.514;55.904;2023-05-23T02:50:52;49001.25;;;-149.77;49.05
60055;BME280;45930;53.514;55.904;2023-05-23T02:51:53;48957.66;;;-149.77;48.66
60055;BME280;45930;53.514;55.904;2023-05-23T02:52:53;48951.72;;;-149.77;48.56
60055;BME280;45930;53.514;55.904;2023-05-23T02:53:54;48961.63;;;-149.77;48.44
60055;BME280;45930;53.514;55.904;2023-05-23T02:54:55;48989.34;;;-149.77;48.22
60055;BME280;45930;53.514;55.904;2023-05-23T02:55:56;48989.34;;;-149.77;48.04
60055;BME280;45930;53.514;55.904;2023-05-23T02:56:57;48975.50;;;-149.77;47.21
60055;BME280;45930;53.514;55.904;2023-05-23T02:57:57;49001.25;;;-149.77;46.94
60055;BME280;45930;53.514;55.904;2023-05-23T02:58:58;48981.44;;;-149.77;47.07
60055;BME280;45930;53.514;55.904;2023-05-23T02:59:59;49001.25;;;-149.77;47.16
60055;BME280;45930;53.514;55.904;2023-05-23T03:01:03;48983.41;;;-149.77;47.14
60055;BME280;45930;53.514;55.904;2023-05-23T03:02:04;48987.38;;;-149.77;46.93
60055;BME280;45930;53.514;55.904;2023-05-23T03:03:05;49005.19;;;-149.77;46.91
60055;BME280;45930;53.514;55.904;2023-05-23T03:04:06;48997.28;;;-149.77;46.82
60055;BME280;45930;53.514;55.904;2023-05-23T03:05:07;49034.91;;;-149.77;46.72
60055;BME280;45930;53.514;55.904;2023-05-23T03:06:08;48995.31;;;-149.77;46.49
60055;BME280;45930;53.514;55.904;2023-05-23T03:07:14;49005.19;;;-149.77;46.28
60055;BME280;45930;53.514;55.904;2023-05-23T03:08:15;49027.00;;;-149.77;45.90
60055;BME280;45930;53.514;55.904;2023-05-23T03:09:16;49007.19;;;-149.77;46.27
60055;BME280;45930;53.514;55.904;2023-05-23T03:10:17;49023.03;;;-149.77;46.15
60055;BME280;45930;53.514;55.904;2023-05-23T03:11:18;48983.41;;;-149.77;46.29
60055;BME280;45930;53.514;55.904;2023-05-23T03:12:19;49011.16;;;-149.77;46.19
60055;BME280;45930;53.514;55.904;2023-05-23T03:13:20;49019.06;;;-149.77;46.15
60055;BME280;45930;53.514;55.904;2023-05-23T03:14:21;49036.91;;;-149.77;45.94
60055;BME280;45930;53.514;55.904;2023-05-23T03:15:22;48997.28;;;-149.77;45.72
60055;BME280;45930;53.514;55.904;2023-05-23T03:16:23;49023.03;;;-149.77;45.67
60055;BME280;45930;53.514;55.904;2023-05-23T03:17:24;49015.09;;;-149.77;45.61
60055;BME280;45930;53.514;55.904;2023-05-23T03:18:25;49009.16;;;-149.77;45.52
60055;BME280;45930;53.514;55.904;2023-05-23T03:19:26;49046.78;;;-149.77;45.51
60055;BME280;45930;53.514;55.904;2023-05-23T03:20:27;49032.94;;;-149.77;45.56
60055;BME280;45930;53.514;55.904;2023-05-23T03:21:28;49028.97;;;-149.77;45.51
60055;BME280;45930;53.514;55.904;2023-05-23T03:22:28;49013.13;;;-149.77;45.62
60055;BME280;45930;53.514;55.904;2023-05-23T03:23:29;49027.00;;;-149.77;45.71
60055;BME280;45930;53.514;55.904;2023-05-23T03:24:30;49021.06;;;-149.77;45.47
60055;BME280;45930;53.514;55.904;2023-05-23T03:25:31;49011.16;;;-149.77;45.56
60055;BME280;45930;53.514;55.904;2023-05-23T03:26:32;49025.00;;;-149.77;45.36
60055;BME280;45930;53.514;55.904;2023-05-23T03:27:32;49019.06;;;-149.77;45.29
60055;BME280;45930;53.514;55.904;2023-05-23T03:28:33;49034.91;;;-149.77;45.08
60055;BME280;45930;53.514;55.904;2023-05-23T03:29:34;49007.19;;;-149.77;45.07
60055;BME280;45930;53.514;55.904;2023-05-23T03:30:35;49032.94;;;-149.77;44.96
60055;BME280;45930;53.514;55.904;2023-05-23T03:31:36;49052.75;;;-149.77;44.93
60055;BME280;45930;53.514;55.904;2023-05-23T03:32:37;49066.59;;;-149.77;44.54
60055;BME280;45930;53.514;55.904;2023-05-23T03:33:38;49040.84;;;-149.77;44.34
60055;BME280;45930;53.514;55.904;2023-05-23T03:34:39;49048.78;;;-149.77;44.48
60055;BME280;45930;53.514;55.904;2023-05-23T03:35:40;49044.81;;;-149.77;44.45
60055;BME280;45930;53.514;55.904;2023-05-23T03:36:41;49038.88;;;-149.77;44.21
60055;BME280;45930;53.514;55.904;2023-05-23T03:37:42;49028.97;;;-149.77;44.23
60055;BME280;45930;53.514;55.904;2023-05-23T03:38:42;49048.78;;;-149.77;44.25
60055;BME280;45930;53.514;55.904;2023-05-23T03:39:43;49056.69;;;-149.77;44.08
60055;BME280;45930;53.514;55.904;2023-05-23T03:40:44;49040.84;;;-149.77;43.73
60055;BME280;45930;53.514;55.904;2023-05-23T03:41:45;49060.66;;;-149.77;43.36
60055;BME280;45930;53.514;55.904;2023-05-23T03:42:47;49056.69;;;-149.77;42.93
60055;BME280;45930;53.514;55.904;2023-05-23T03:43:48;49074.53;;;-149.77;42.89
60055;BME280;45930;53.514;55.904;2023-05-23T03:44:49;49090.38;;;-149.77;42.65
60055;BME280;45930;53.514;55.904;2023-05-23T03:45:50;49066.59;;;-149.77;42.42
60055;BME280;45930;53.514;55.904;2023-05-23T03:46:51;49068.59;;;-149.77;42.32
60055;BME280;45930;53.514;55.904;2023-05-23T03:47:52;49086.41;;;-149.77;42.17
60055;BME280;45930;53.514;55.904;2023-05-23T03:48:52;49072.53;;;-149.77;42.04
60055;BME280;45930;53.514;55.904;2023-05-23T03:49:53;49088.41;;;-149.77;42.02
60055;BME280;45930;53.514;55.904;2023-05-23T03:50:54;49080.47;;;-149.77;42.16
60055;BME280;45930;53.514;55.904;2023-05-23T03:51:55;49112.16;;;-149.77;41.93
60055;BME280;45930;53.514;55.904;2023-05-23T03:52:56;49078.50;;;-149.77;41.80
60055;BME280;45930;53.514;55.904;2023-05-23T03:53:57;49082.44;;;-149.77;41.65
60055;BME280;45930;53.514;55.904;2023-05-23T03:54:57;49092.34;;;-149.77;41.73
60055;BME280;45930;53.514;55.904;2023-05-23T03:55:58;49106.22;;;-149.77;41.09
60055;BME280;45930;53.514;55.904;2023-05-23T03:56:59;49096.31;;;-149.77;41.24
60055;BME280;45930;53.514;55.904;2023-05-23T03:58:00;49090.38;;;-149.77;41.10
60055;BME280;45930;53.514;55.904;2023-05-23T03:59:00;49114.16;;;-149.77;40.84
60055;BME280;45930;53.514;55.904;2023-05-23T04:00:03;49124.03;;;-149.77;40.52
60055;BME280;45930;53.514;55.904;2023-05-23T04:01:22;49139.91;;;-149.77;40.27
60055;BME280;45930;53.514;55.904;2023-05-23T04:02:23;49120.09;;;-149.77;39.98
60055;BME280;45930;53.514;55.904;2023-05-23T04:03:23;49141.88;;;-149.77;39.79
60055;BME280;45930;53.514;55.904;2023-05-23T04:04:26;49124.03;;;-149.77;39.64
60055;BME280;45930;53.514;55.904;2023-05-23T04:05:27;49137.91;;;-149.77;39.91
60055;BME280;45930;53.514;55.904;2023-05-23T04:06:28;49124.03;;;-149.77;39.78
60055;BME280;45930;53.514;55.904;2023-05-23T04:07:30;49086.41;;;-149.77;39.48
60055;BME280;45930;53.514;55.904;2023-05-23T04:08:34;49108.19;;;-149.77;39.33
60055;BME280;45930;53.514;55.904;2023-05-23T04:09:34;49133.94;;;-149.77;39.79
60055;BME280;45930;53.514;55.904;2023-05-23T04:10:35;49122.06;;;-149.77;39.65
60055;BME280;45930;53.514;55.904;2023-05-23T04:11:36;49124.03;;;-149.77;39.42
60055;BME280;45930;53.514;55.904;2023-05-23T04:12:37;49141.88;;;-149.77;39.18
60055;BME280;45930;53.514;55.904;2023-05-23T04:13:40;49153.75;;;-149.77;39.31
60055;BME280;45930;53.514;55.904;2023-05-23T04:14:42;49139.91;;;-149.77;39.40
60055;BME280;45930;53.514;55.904;2023-05-23T04:15:43;49130.00;;;-149.77;39.32
60055;BME280;45930;53.514;55.904;2023-05-23T04:16:44;49139.91;;;-149.77;39.36
60055;BME280;45930;53.514;55.904;2023-05-23T04:17:45;49149.78;;;-149.77;39.20
60055;BME280;45930;53.514;55.904;2023-05-23T04:18:46;49130.00;;;-149.77;38.97
60055;BME280;45930;53.514;55.904;2023-05-23T04:19:47;49147.81;;;-149.77;38.70
60055;BME280;45930;53.514;55.904;2023-05-23T04:20:48;49155.75;;;-149.77;39.05
60055;BME280;45930;53.514;55.904;2023-05-23T04:21:49;49161.69;;;-149.77;38.85
60055;BME280;45930;53.514;55.904;2023-05-23T04:22:50;49167.63;;;-149.77;38.34
60055;BME280;45930;53.514;55.904;2023-05-23T04:23:51;49187.44;;;-149.77;38.24
60055;BME280;45930;53.514;55.904;2023-05-23T04:24:52;49171.59;;;-149.77;38.39
60055;BME280;45930;53.514;55.904;2023-05-23T04:25:53;49177.53;;;-149.77;38.34
60055;BME280;45930;53.514;55.904;2023-05-23T04:26:54;49155.75;;;-149.77;38.13
60055;BME280;45930;53.514;55.904;2023-05-23T04:27:55;49199.31;;;-149.77;37.94
60055;BME280;45930;53.514;55.904;2023-05-23T04:28:56;49171.59;;;-149.77;37.66
60055;BME280;45930;53.514;55.904;2023-05-23T04:29:58;49175.53;;;-149.77;37.53
60055;BME280;45930;53.514;55.904;2023-05-23T04:31:00;49155.75;;;-149.77;37.52
60055;BME280;45930;53.514;55.904;2023-05-23T04:32:02;49183.47;;;-149.77;37.67
60055;BME280;45930;53.514;55.904;2023-05-23T04:33:03;49191.38;;;-149.77;37.96
60055;BME280;45930;53.514;55.904;2023-05-23T04:34:08;49183.47;;;-149.77;37.86
60055;BME280;45930;53.514;55.904;2023-05-23T04:35:09;49197.34;;;-149.77;37.16
60055;BME280;45930;53.514;55.904;2023-05-23T04:36:10;49175.53;;;-149.77;37.23
60055;BME280;45930;53.514;55.904;2023-05-23T04:37:11;49233.00;;;-149.77;36.27
60055;BME280;45930;53.514;55.904;2023-05-23T04:38:12;49213.19;;;-149.77;35.82
60055;BME280;45930;53.514;55.904;2023-05-23T04:39:13;49215.16;;;-149.77;35.38
60055;BME280;45930;53.514;55.904;2023-05-23T04:40:17;49223.09;;;-149.77;35.57
60055;BME280;45930;53.514;55.904;2023-05-23T04:41:17;49225.06;;;-149.77;36.12
60055;BME280;45930;53.514;55.904;2023-05-23T04:42:22;49229.03;;;-149.77;35.43
60055;BME280;45930;53.514;55.904;2023-05-23T04:43:24;49179.50;;;-149.77;35.37
60055;BME280;45930;53.514;55.904;2023-05-23T04:44:26;49199.31;;;-149.77;35.13
60055;BME280;45930;53.514;55.904;2023-05-23T04:45:29;49236.94;;;-149.77;35.45
60055;BME280;45930;53.514;55.904;2023-05-23T04:46:31;49213.19;;;-149.77;35.19
60055;BME280;45930;53.514;55.904;2023-05-23T04:47:31;49246.84;;;-149.77;35.02
60055;BME280;45930;53.514;55.904;2023-05-23T04:48:34;49242.91;;;-149.77;35.19
60055;BME280;45930;53.514;55.904;2023-05-23T04:49:36;49233.00;;;-149.77;35.39
60055;BME280;45930;53.514;55.904;2023-05-23T04:50:38;49262.69;;;-149.77;35.38
60055;BME280;45930;53.514;55.904;2023-05-23T04:51:40;49252.78;;;-149.77;35.33
60055;BME280;45930;53.514;55.904;2023-05-23T04:52:40;49240.91;;;-149.77;35.55
60055;BME280;45930;53.514;55.904;2023-05-23T04:53:41;49238.94;;;-149.77;34.63
60055;BME280;45930;53.514;55.904;2023-05-23T04:54:44;49276.56;;;-149.77;34.35
60055;BME280;45930;53.514;55.904;2023-05-23T04:55:46;49242.91;;;-149.77;34.66
60055;BME280;45930;53.514;55.904;2023-05-23T04:56:46;49256.75;;;-149.77;34.73
60055;BME280;45930;53.514;55.904;2023-05-23T04:57:47;49248.84;;;-149.77;34.75
60055;BME280;45930;53.514;55.904;2023-05-23T04:58:48;49270.63;;;-149.77;34.95
60055;BME280;45930;53.514;55.904;2023-05-23T04:59:49;49302.31;;;-149.77;35.36
60055;BME280;45930;53.514;55.904;2023-05-23T05:00:50;49258.75;;;-149.77;34.58
60055;BME280;45930;53.514;55.904;2023-05-23T05:01:50;49242.91;;;-149.77;34.85
60055;BME280;45930;53.514;55.904;2023-05-23T05:02:51;49276.56;;;-149.77;34.53
60055;BME280;45930;53.514;55.904;2023-05-23T05:03:52;49260.72;;;-149.77;34.59
60055;BME280;45930;53.514;55.904;2023-05-23T05:04:53;49278.53;;;-149.77;34.50
60055;BME280;45930;53.514;55.904;2023-05-23T05:05:53;49262.69;;;-149.77;34.77
60055;BME280;45930;53.514;55.904;2023-05-23T05:06:54;49302.31;;;-149.77;34.88
60055;BME280;45930;53.514;55.904;2023-05-23T05:07:55;49290.44;;;-149.77;33.92
60055;BME280;45930;53.514;55.904;2023-05-23T05:08:56;49272.59;;;-149.77;33.01
60055;BME280;45930;53.514;55.904;2023-05-23T05:09:57;49296.38;;;-149.77;33.24
60055;BME280;45930;53.514;55.904;2023-05-23T05:10:58;49306.28;;;-149.77;33.33
60055;BME280;45930;53.514;55.904;2023-05-23T05:11:58;49322.13;;;-149.77;34.16
60055;BME280;45930;53.514;55.904;2023-05-23T05:12:59;49320.16;;;-149.77;33.94
60055;BME280;45930;53.514;55.904;2023-05-23T05:14:00;49294.41;;;-149.77;33.53
60055;BME280;45930;53.514;55.904;2023-05-23T05:15:02;49310.25;;;-149.77;33.66
60055;BME280;45930;53.514;55.904;2023-05-23T05:16:06;49290.44;;;-149.77;33.24
60055;BME280;45930;53.514;55.904;2023-05-23T05:17:07;49300.34;;;-149.77;33.67
60055;BME280;45930;53.514;55.904;2023-05-23T05:18:08;49328.06;;;-149.77;33.84
60055;BME280;45930;53.514;55.904;2023-05-23T05:19:09;49324.09;;;-149.77;33.94
60055;BME280;45930;53.514;55.904;2023-05-23T05:20:10;49336.00;;;-149.77;33.86
60055;BME280;45930;53.514;55.904;2023-05-23T05:21:11;49347.88;;;-149.77;33.57